sensor_id;sensor_type;location;lat;lon;timestamp;temperature;humidity
4725;DHT22;2376;53.544;10.226;2022-12-29T00:00:01;10.30;99.90
4725;DHT22;2376;53.544;10.226;2022-12-29T00:02:28;10.20;99.90
4725;DHT22;2376;53.544;10.226;2022-12-29T00:04:55;10.30;99.90
4725;DHT22;2376;53.544;10.226;2022-12-29T00:07:21;10.30;99.90
4725;DHT22;2376;53.544;10.226;2022-12-29T00:09:49;10.30;99.90
4725;DHT22;2376;53.544;10.226;2022-12-29T00:12:16;10.40;99.90
4725;DHT22;2376;53.544;10.226;2022-12-29T00:14:43;10.30;99.90
4725;DHT22;2376;53.544;10.226;2022-12-29T00:17:27;10.40;99.90
4725;DHT22;2376;53.544;10.226;2022-12-29T00:19:54;10.50;99.90
4725;DHT22;2376;53.544;10.226;2022-12-29T00:22:39;10.50;99.90
4725;DHT22;2376;53.544;10.226;2022-12-29T00:25:33;10.60;99.90
4725;DHT22;2376;53.544;10.226;2022-12-29T00:28:17;10.50;99.90
4725;DHT22;2376;53.544;10.226;2022-12-29T00:31:15;10.40;99.90
4725;DHT22;2376;53.544;10.226;2022-12-29T00:33:59;10.50;99.90
4725;DHT22;2376;53.544;10.226;2022-12-29T00:36:44;10.60;99.90
4725;DHT22;2376;53.544;10.226;2022-12-29T00:39:13;10.60;99.90
4725;DHT22;2376;53.544;10.226;2022-12-29T00:42:04;10.60;99.90
4725;DHT22;2376;53.544;10.226;2022-12-29T00:45:00;10.60;99.90
4725;DHT22;2376;53.544;10.226;2022-12-29T00:47:27;10.60;99.90
4725;DHT22;2376;53.544;10.226;2022-12-29T00:49:54;10.70;99.90
4725;DHT22;2376;53.544;10.226;2022-12-29T00:52:19;10.70;99.90
4725;DHT22;2376;53.544;10.226;2022-12-29T00:54:46;10.60;99.90
4725;DHT22;2376;53.544;10.226;2022-12-29T00:57:14;10.70;99.90
4725;DHT22;2376;53.544;10.226;2022-12-29T00:59:42;10.70;99.90
4725;DHT22;2376;53.544;10.226;2022-12-29T01:02:10;10.70;99.90
4725;DHT22;2376;53.544;10.226;2022-12-29T01:04:36;10.70;99.90
4725;DHT22;2376;53.544;10.226;2022-12-29T01:07:03;10.70;99.90
4725;DHT22;2376;53.544;10.226;2022-12-29T01:09:31;10.70;99.90
4725;DHT22;2376;53.544;10.226;2022-12-29T01:12:16;10.60;99.90
4725;DHT22;2376;53.544;10.226;2022-12-29T01:15:04;10.70;99.90
4725;DHT22;2376;53.544;10.226;2022-12-29T01:17:31;10.80;99.90
4725;DHT22;2376;53.544;10.226;2022-12-29T01:19:58;10.90;99.90
4725;DHT22;2376;53.544;10.226;2022-12-29T01:22:24;10.90;99.90
4725;DHT22;2376;53.544;10.226;2022-12-29T01:24:51;10.90;99.90
4725;DHT22;2376;53.544;10.226;2022-12-29T01:27:19;10.90;99.90
4725;DHT22;2376;53.544;10.226;2022-12-29T01:29:46;10.90;99.90
4725;DHT22;2376;53.544;10.226;2022-12-29T01:32:13;10.90;99.90
4725;DHT22;2376;53.544;10.226;2022-12-29T01:34:39;10.90;99.90
4725;DHT22;2376;53.544;10.226;2022-12-29T01:37:06;11.00;99.90
4725;DHT22;2376;53.544;10.226;2022-12-29T01:39:33;11.00;99.90
4725;DHT22;2376;53.544;10.226;2022-12-29T01:42:00;11.00;99.90
4725;DHT22;2376;53.544;10.226;2022-12-29T01:44:56;10.90;99.90
4725;DHT22;2376;53.544;10.226;2022-12-29T01:47:29;11.00;99.90
4725;DHT22;2376;53.544;10.226;2022-12-29T01:50:00;11.10;99.90
4725;DHT22;2376;53.544;10.226;2022-12-29T01:52:30;11.10;99.90
4725;DHT22;2376;53.544;10.226;2022-12-29T01:54:59;11.10;99.90
4725;DHT22;2376;53.544;10.226;2022-12-29T01:57:30;11.10;99.90
4725;DHT22;2376;53.544;10.226;2022-12-29T02:00:02;11.10;99.90
4725;DHT22;2376;53.544;10.226;2022-12-29T02:02:30;11.10;99.90
4725;DHT22;2376;53.544;10.226;2022-12-29T02:04:58;11.20;99.90
4725;DHT22;2376;53.544;10.226;2022-12-29T02:07:26;11.20;99.90
4725;DHT22;2376;53.544;10.226;2022-12-29T02:09:55;11.20;99.90
4725;DHT22;2376;53.544;10.226;2022-12-29T02:12:23;11.20;99.90
4725;DHT22;2376;53.544;10.226;2022-12-29T02:14:53;11.30;99.90
4725;DHT22;2376;53.544;10.226;2022-12-29T02:17:34;11.30;99.90
4725;DHT22;2376;53.544;10.226;2022-12-29T02:23:29;11.10;99.90
4725;DHT22;2376;53.544;10.226;2022-12-29T02:29:46;11.10;99.90
4725;DHT22;2376;53.544;10.226;2022-12-29T02:32:23;11.10;99.90
4725;DHT22;2376;53.544;10.226;2022-12-29T02:34:58;11.20;99.90
4725;DHT22;2376;53.544;10.226;2022-12-29T02:37:32;11.20;99.90
4725;DHT22;2376;53.544;10.226;2022-12-29T02:40:07;11.20;99.90
4725;DHT22;2376;53.544;10.226;2022-12-29T02:42:46;11.20;99.90
4725;DHT22;2376;53.544;10.226;2022-12-29T02:45:20;11.30;99.90
4725;DHT22;2376;53.544;10.226;2022-12-29T02:47:53;11.30;99.90
4725;DHT22;2376;53.544;10.226;2022-12-29T02:50:25;11.30;99.90
4725;DHT22;2376;53.544;10.226;2022-12-29T02:52:57;11.30;99.90
4725;DHT22;2376;53.544;10.226;2022-12-29T02:55:25;11.40;99.90
4725;DHT22;2376;53.544;10.226;2022-12-29T02:58:13;11.30;99.90
4725;DHT22;2376;53.544;10.226;2022-12-29T03:00:50;11.30;99.90
4725;DHT22;2376;53.544;10.226;2022-12-29T03:03:27;11.40;99.90
4725;DHT22;2376;53.544;10.226;2022-12-29T03:06:03;11.40;99.90
4725;DHT22;2376;53.544;10.226;2022-12-29T03:08:38;11.30;99.90
4725;DHT22;2376;53.544;10.226;2022-12-29T03:11:09;11.20;99.90
4725;DHT22;2376;53.544;10.226;2022-12-29T03:14:01;11.30;99.90
4725;DHT22;2376;53.544;10.226;2022-12-29T03:16:48;11.20;99.90
4725;DHT22;2376;53.544;10.226;2022-12-29T03:19:20;11.20;99.90
4725;DHT22;2376;53.544;10.226;2022-12-29T03:21:51;11.20;99.90
4725;DHT22;2376;53.544;10.226;2022-12-29T03:24:39;11.20;99.90
4725;DHT22;2376;53.544;10.226;2022-12-29T03:27:10;11.20;99.90
4725;DHT22;2376;53.544;10.226;2022-12-29T03:29:44;11.20;99.90
4725;DHT22;2376;53.544;10.226;2022-12-29T03:32:12;11.20;99.90
4725;DHT22;2376;53.544;10.226;2022-12-29T03:34:41;11.30;99.90
4725;DHT22;2376;53.544;10.226;2022-12-29T03:37:12;11.40;99.90
4725;DHT22;2376;53.544;10.226;2022-12-29T03:39:41;11.30;99.90
4725;DHT22;2376;53.544;10.226;2022-12-29T03:42:11;11.30;99.90
4725;DHT22;2376;53.544;10.226;2022-12-29T03:44:41;11.30;99.90
4725;DHT22;2376;53.544;10.226;2022-12-29T03:47:10;11.40;99.90
4725;DHT22;2376;53.544;10.226;2022-12-29T03:49:38;11.30;99.90
4725;DHT22;2376;53.544;10.226;2022-12-29T03:52:06;11.30;99.90
4725;DHT22;2376;53.544;10.226;2022-12-29T03:54:33;11.30;99.90
4725;DHT22;2376;53.544;10.226;2022-12-29T03:56:59;11.30;99.90
4725;DHT22;2376;53.544;10.226;2022-12-29T03:59:26;11.30;99.90
4725;DHT22;2376;53.544;10.226;2022-12-29T04:01:53;11.30;99.90
4725;DHT22;2376;53.544;10.226;2022-12-29T04:04:20;11.30;99.90
4725;DHT22;2376;53.544;10.226;2022-12-29T04:06:47;11.40;99.90
4725;DHT22;2376;53.544;10.226;2022-12-29T04:09:15;11.40;99.90
4725;DHT22;2376;53.544;10.226;2022-12-29T04:11:41;11.40;99.90
4725;DHT22;2376;53.544;10.226;2022-12-29T04:14:08;11.30;99.90
4725;DHT22;2376;53.544;10.226;2022-12-29T04:16:35;11.30;99.90
4725;DHT22;2376;53.544;10.226;2022-12-29T04:19:04;11.20;99.90
4725;DHT22;2376;53.544;10.226;2022-12-29T04:21:31;11.30;99.90
4725;DHT22;2376;53.544;10.226;2022-12-29T04:23:58;11.30;99.90
4725;DHT22;2376;53.544;10.226;2022-12-29T04:26:26;11.30;99.90
4725;DHT22;2376;53.544;10.226;2022-12-29T04:28:53;11.40;99.90
4725;DHT22;2376;53.544;10.226;2022-12-29T04:31:20;11.40;99.90
4725;DHT22;2376;53.544;10.226;2022-12-29T04:33:46;11.50;99.90
4725;DHT22;2376;53.544;10.226;2022-12-29T04:36:13;11.40;99.90
4725;DHT22;2376;53.544;10.226;2022-12-29T04:38:40;11.40;99.90
4725;DHT22;2376;53.544;10.226;2022-12-29T04:41:07;11.40;99.90
4725;DHT22;2376;53.544;10.226;2022-12-29T04:43:35;11.30;99.90
4725;DHT22;2376;53.544;10.226;2022-12-29T04:46:01;11.30;99.90
4725;DHT22;2376;53.544;10.226;2022-12-29T04:48:28;11.40;99.90
4725;DHT22;2376;53.544;10.226;2022-12-29T04:50:55;11.30;99.90
4725;DHT22;2376;53.544;10.226;2022-12-29T04:53:22;11.20;99.90
4725;DHT22;2376;53.544;10.226;2022-12-29T04:55:49;11.40;99.90
4725;DHT22;2376;53.544;10.226;2022-12-29T04:58:16;11.50;99.90
4725;DHT22;2376;53.544;10.226;2022-12-29T05:00:44;11.40;99.90
4725;DHT22;2376;53.544;10.226;2022-12-29T05:03:11;11.40;99.90
4725;DHT22;2376;53.544;10.226;2022-12-29T05:05:38;11.40;99.90
4725;DHT22;2376;53.544;10.226;2022-12-29T05:08:05;11.40;99.90
4725;DHT22;2376;53.544;10.226;2022-12-29T05:10:32;11.50;99.90
4725;DHT22;2376;53.544;10.226;2022-12-29T05:12:58;11.50;99.90
4725;DHT22;2376;53.544;10.226;2022-12-29T05:15:26;11.50;99.90
4725;DHT22;2376;53.544;10.226;2022-12-29T05:17:54;11.50;99.90
4725;DHT22;2376;53.544;10.226;2022-12-29T05:20:21;11.40;99.90
4725;DHT22;2376;53.544;10.226;2022-12-29T05:22:48;11.60;99.90
4725;DHT22;2376;53.544;10.226;2022-12-29T05:25:14;11.60;99.90
4725;DHT22;2376;53.544;10.226;2022-12-29T05:27:41;11.60;99.90
4725;DHT22;2376;53.544;10.226;2022-12-29T05:30:09;11.60;99.90
4725;DHT22;2376;53.544;10.226;2022-12-29T05:32:36;11.60;99.90
4725;DHT22;2376;53.544;10.226;2022-12-29T05:35:05;11.60;99.90
4725;DHT22;2376;53.544;10.226;2022-12-29T05:37:32;11.50;99.90
4725;DHT22;2376;53.544;10.226;2022-12-29T05:39:58;11.50;99.90
4725;DHT22;2376;53.544;10.226;2022-12-29T05:42:25;11.60;99.90
4725;DHT22;2376;53.544;10.226;2022-12-29T05:44:52;11.60;99.90
4725;DHT22;2376;53.544;10.226;2022-12-29T05:47:19;11.60;99.90
4725;DHT22;2376;53.544;10.226;2022-12-29T05:49:46;11.60;99.90
4725;DHT22;2376;53.544;10.226;2022-12-29T05:52:14;11.60;99.90
4725;DHT22;2376;53.544;10.226;2022-12-29T05:54:40;11.60;99.90
4725;DHT22;2376;53.544;10.226;2022-12-29T05:57:07;11.60;99.90
4725;DHT22;2376;53.544;10.226;2022-12-29T05:59:35;11.50;99.90
4725;DHT22;2376;53.544;10.226;2022-12-29T06:02:02;11.50;99.90
4725;DHT22;2376;53.544;10.226;2022-12-29T06:04:28;11.60;99.90
4725;DHT22;2376;53.544;10.226;2022-12-29T06:06:55;11.70;99.90
4725;DHT22;2376;53.544;10.226;2022-12-29T06:09:23;11.70;99.90
4725;DHT22;2376;53.544;10.226;2022-12-29T06:11:50;11.60;99.90
4725;DHT22;2376;53.544;10.226;2022-12-29T06:14:17;11.50;99.90
4725;DHT22;2376;53.544;10.226;2022-12-29T06:16:44;11.60;99.90
4725;DHT22;2376;53.544;10.226;2022-12-29T06:19:10;11.60;99.90
4725;DHT22;2376;53.544;10.226;2022-12-29T06:21:37;11.60;99.90
4725;DHT22;2376;53.544;10.226;2022-12-29T06:24:04;11.60;99.90
4725;DHT22;2376;53.544;10.226;2022-12-29T06:26:32;11.60;99.90
4725;DHT22;2376;53.544;10.226;2022-12-29T06:28:59;11.60;99.90
4725;DHT22;2376;53.544;10.226;2022-12-29T06:31:27;11.80;99.90
4725;DHT22;2376;53.544;10.226;2022-12-29T06:33:53;11.80;99.90
4725;DHT22;2376;53.544;10.226;2022-12-29T06:36:20;11.80;99.90
4725;DHT22;2376;53.544;10.226;2022-12-29T06:38:47;11.70;99.90
4725;DHT22;2376;53.544;10.226;2022-12-29T06:41:14;11.70;99.90
4725;DHT22;2376;53.544;10.226;2022-12-29T06:43:42;11.60;99.90
4725;DHT22;2376;53.544;10.226;2022-12-29T06:46:08;11.60;99.90
4725;DHT22;2376;53.544;10.226;2022-12-29T06:48:35;11.70;99.90
4725;DHT22;2376;53.544;10.226;2022-12-29T06:51:02;11.90;99.90
4725;DHT22;2376;53.544;10.226;2022-12-29T06:53:29;11.90;99.90
4725;DHT22;2376;53.544;10.226;2022-12-29T06:55:55;11.80;99.90
4725;DHT22;2376;53.544;10.226;2022-12-29T06:58:23;11.80;99.90
4725;DHT22;2376;53.544;10.226;2022-12-29T07:00:51;11.80;99.90
4725;DHT22;2376;53.544;10.226;2022-12-29T07:03:17;11.90;99.90
4725;DHT22;2376;53.544;10.226;2022-12-29T07:05:44;12.00;99.90
4725;DHT22;2376;53.544;10.226;2022-12-29T07:08:11;12.10;99.90
4725;DHT22;2376;53.544;10.226;2022-12-29T07:10:38;12.20;99.90
4725;DHT22;2376;53.544;10.226;2022-12-29T07:13:04;12.10;99.90
4725;DHT22;2376;53.544;10.226;2022-12-29T07:15:33;12.00;99.90
4725;DHT22;2376;53.544;10.226;2022-12-29T07:18:01;12.00;99.90
4725;DHT22;2376;53.544;10.226;2022-12-29T07:20:28;12.00;99.90
4725;DHT22;2376;53.544;10.226;2022-12-29T07:22:55;12.10;99.90
4725;DHT22;2376;53.544;10.226;2022-12-29T07:25:22;12.10;99.90
4725;DHT22;2376;53.544;10.226;2022-12-29T07:27:49;12.20;99.90
4725;DHT22;2376;53.544;10.226;2022-12-29T07:30:16;12.20;99.90
4725;DHT22;2376;53.544;10.226;2022-12-29T07:32:43;12.20;99.90
4725;DHT22;2376;53.544;10.226;2022-12-29T07:35:11;12.20;99.90
4725;DHT22;2376;53.544;10.226;2022-12-29T07:37:38;12.20;99.90
4725;DHT22;2376;53.544;10.226;2022-12-29T07:40:06;12.20;99.90
4725;DHT22;2376;53.544;10.226;2022-12-29T07:42:33;12.10;99.90
4725;DHT22;2376;53.544;10.226;2022-12-29T07:44:59;12.10;99.90
4725;DHT22;2376;53.544;10.226;2022-12-29T07:47:26;12.10;99.90
4725;DHT22;2376;53.544;10.226;2022-12-29T07:49:53;11.90;99.90
4725;DHT22;2376;53.544;10.226;2022-12-29T07:52:21;11.70;99.90
4725;DHT22;2376;53.544;10.226;2022-12-29T07:54:48;11.80;99.90
4725;DHT22;2376;53.544;10.226;2022-12-29T07:57:15;11.80;99.90
4725;DHT22;2376;53.544;10.226;2022-12-29T07:59:41;11.70;99.90
4725;DHT22;2376;53.544;10.226;2022-12-29T08:02:09;11.70;99.90
4725;DHT22;2376;53.544;10.226;2022-12-29T08:04:36;11.60;99.90
4725;DHT22;2376;53.544;10.226;2022-12-29T08:07:03;11.60;99.90
4725;DHT22;2376;53.544;10.226;2022-12-29T08:09:31;11.60;99.90
4725;DHT22;2376;53.544;10.226;2022-12-29T08:11:58;11.80;99.90
4725;DHT22;2376;53.544;10.226;2022-12-29T08:14:25;12.00;99.90
4725;DHT22;2376;53.544;10.226;2022-12-29T08:16:52;12.00;99.90
4725;DHT22;2376;53.544;10.226;2022-12-29T08:19:19;12.10;99.90
4725;DHT22;2376;53.544;10.226;2022-12-29T08:21:45;12.10;99.90
4725;DHT22;2376;53.544;10.226;2022-12-29T08:24:12;12.20;99.90
4725;DHT22;2376;53.544;10.226;2022-12-29T08:26:40;12.10;99.90
4725;DHT22;2376;53.544;10.226;2022-12-29T08:29:07;12.10;99.90
4725;DHT22;2376;53.544;10.226;2022-12-29T08:31:34;12.00;99.90
4725;DHT22;2376;53.544;10.226;2022-12-29T08:34:01;11.90;99.90
4725;DHT22;2376;53.544;10.226;2022-12-29T08:36:28;12.00;99.90
4725;DHT22;2376;53.544;10.226;2022-12-29T08:38:55;12.00;99.90
4725;DHT22;2376;53.544;10.226;2022-12-29T08:41:22;12.00;99.90
4725;DHT22;2376;53.544;10.226;2022-12-29T08:43:50;11.90;99.90
4725;DHT22;2376;53.544;10.226;2022-12-29T08:46:17;11.90;99.90
4725;DHT22;2376;53.544;10.226;2022-12-29T08:48:45;11.90;99.90
4725;DHT22;2376;53.544;10.226;2022-12-29T08:51:11;11.80;99.90
4725;DHT22;2376;53.544;10.226;2022-12-29T08:53:38;11.80;99.90
4725;DHT22;2376;53.544;10.226;2022-12-29T08:56:06;11.80;99.90
4725;DHT22;2376;53.544;10.226;2022-12-29T08:58:33;11.70;99.90
4725;DHT22;2376;53.544;10.226;2022-12-29T09:01:01;11.70;99.90
4725;DHT22;2376;53.544;10.226;2022-12-29T09:03:28;11.80;99.90
4725;DHT22;2376;53.544;10.226;2022-12-29T09:05:55;11.90;99.90
4725;DHT22;2376;53.544;10.226;2022-12-29T09:08:22;11.90;99.90
4725;DHT22;2376;53.544;10.226;2022-12-29T09:10:49;11.90;99.90
4725;DHT22;2376;53.544;10.226;2022-12-29T09:13:17;11.80;99.90
4725;DHT22;2376;53.544;10.226;2022-12-29T09:15:43;11.80;99.90
4725;DHT22;2376;53.544;10.226;2022-12-29T09:18:12;11.80;99.90
4725;DHT22;2376;53.544;10.226;2022-12-29T09:20:38;11.90;99.90
4725;DHT22;2376;53.544;10.226;2022-12-29T09:23:05;11.90;99.90
4725;DHT22;2376;53.544;10.226;2022-12-29T09:25:33;12.00;99.90
4725;DHT22;2376;53.544;10.226;2022-12-29T09:27:59;11.80;99.90
4725;DHT22;2376;53.544;10.226;2022-12-29T09:30:29;11.90;99.90
4725;DHT22;2376;53.544;10.226;2022-12-29T09:32:56;11.90;99.90
4725;DHT22;2376;53.544;10.226;2022-12-29T09:35:24;11.70;99.90
4725;DHT22;2376;53.544;10.226;2022-12-29T09:37:50;11.90;99.90
4725;DHT22;2376;53.544;10.226;2022-12-29T09:40:25;11.80;99.90
4725;DHT22;2376;53.544;10.226;2022-12-29T09:43:14;12.00;99.90
4725;DHT22;2376;53.544;10.226;2022-12-29T09:45:45;12.00;99.90
4725;DHT22;2376;53.544;10.226;2022-12-29T09:48:18;11.90;99.90
4725;DHT22;2376;53.544;10.226;2022-12-29T09:50:55;11.90;99.90
4725;DHT22;2376;53.544;10.226;2022-12-29T09:53:30;12.00;99.90
4725;DHT22;2376;53.544;10.226;2022-12-29T09:56:07;12.10;99.90
4725;DHT22;2376;53.544;10.226;2022-12-29T09:58:50;12.10;99.90
4725;DHT22;2376;53.544;10.226;2022-12-29T10:01:27;12.10;99.90
4725;DHT22;2376;53.544;10.226;2022-12-29T10:03:56;12.10;99.90
4725;DHT22;2376;53.544;10.226;2022-12-29T10:06:30;12.10;99.90
4725;DHT22;2376;53.544;10.226;2022-12-29T10:09:02;12.10;99.90
4725;DHT22;2376;53.544;10.226;2022-12-29T10:11:46;12.10;99.90
4725;DHT22;2376;53.544;10.226;2022-12-29T10:14:28;12.20;99.90
4725;DHT22;2376;53.544;10.226;2022-12-29T10:17:03;12.10;99.90
4725;DHT22;2376;53.544;10.226;2022-12-29T10:19:46;12.20;99.90
4725;DHT22;2376;53.544;10.226;2022-12-29T10:22:27;12.20;99.90
4725;DHT22;2376;53.544;10.226;2022-12-29T10:25:00;12.30;99.90
4725;DHT22;2376;53.544;10.226;2022-12-29T10:27:31;12.30;99.90
4725;DHT22;2376;53.544;10.226;2022-12-29T10:30:01;12.10;99.90
4725;DHT22;2376;53.544;10.226;2022-12-29T10:32:32;11.90;99.90
4725;DHT22;2376;53.544;10.226;2022-12-29T10:35:05;11.90;99.90
4725;DHT22;2376;53.544;10.226;2022-12-29T10:37:40;12.00;99.90
4725;DHT22;2376;53.544;10.226;2022-12-29T10:40:17;11.90;99.90
4725;DHT22;2376;53.544;10.226;2022-12-29T10:42:47;12.00;99.90
4725;DHT22;2376;53.544;10.226;2022-12-29T10:45:16;12.00;99.90
4725;DHT22;2376;53.544;10.226;2022-12-29T10:47:52;11.90;99.90
4725;DHT22;2376;53.544;10.226;2022-12-29T10:50:20;11.70;99.90
4725;DHT22;2376;53.544;10.226;2022-12-29T10:52:48;11.70;99.90
4725;DHT22;2376;53.544;10.226;2022-12-29T10:55:18;11.80;99.90
4725;DHT22;2376;53.544;10.226;2022-12-29T10:57:46;12.00;99.90
4725;DHT22;2376;53.544;10.226;2022-12-29T11:00:16;11.80;99.90
4725;DHT22;2376;53.544;10.226;2022-12-29T11:03:12;11.90;99.90
4725;DHT22;2376;53.544;10.226;2022-12-29T11:05:47;12.00;99.90
4725;DHT22;2376;53.544;10.226;2022-12-29T11:08:20;12.10;99.90
4725;DHT22;2376;53.544;10.226;2022-12-29T11:13:27;12.30;99.90
4725;DHT22;2376;53.544;10.226;2022-12-29T11:15:54;12.20;99.90
4725;DHT22;2376;53.544;10.226;2022-12-29T11:18:23;12.30;99.90
4725;DHT22;2376;53.544;10.226;2022-12-29T11:20:53;12.40;99.90
4725;DHT22;2376;53.544;10.226;2022-12-29T11:23:37;12.40;99.90
4725;DHT22;2376;53.544;10.226;2022-12-29T11:26:17;12.50;99.90
4725;DHT22;2376;53.544;10.226;2022-12-29T11:28:45;12.40;99.90
4725;DHT22;2376;53.544;10.226;2022-12-29T11:31:16;12.40;99.90
4725;DHT22;2376;53.544;10.226;2022-12-29T11:33:44;12.60;99.90
4725;DHT22;2376;53.544;10.226;2022-12-29T11:36:13;12.60;99.90
4725;DHT22;2376;53.544;10.226;2022-12-29T11:38:46;12.60;99.90
4725;DHT22;2376;53.544;10.226;2022-12-29T11:41:20;12.70;99.90
4725;DHT22;2376;53.544;10.226;2022-12-29T11:43:47;12.60;99.90
4725;DHT22;2376;53.544;10.226;2022-12-29T11:46:17;12.50;99.90
4725;DHT22;2376;53.544;10.226;2022-12-29T11:48:46;12.60;99.90
4725;DHT22;2376;53.544;10.226;2022-12-29T11:51:21;12.50;99.90
4725;DHT22;2376;53.544;10.226;2022-12-29T11:53:52;12.60;99.90
4725;DHT22;2376;53.544;10.226;2022-12-29T11:56:22;12.60;99.90
4725;DHT22;2376;53.544;10.226;2022-12-29T11:58:57;12.60;99.90
4725;DHT22;2376;53.544;10.226;2022-12-29T12:01:32;12.60;99.90
4725;DHT22;2376;53.544;10.226;2022-12-29T12:04:03;12.50;99.90
4725;DHT22;2376;53.544;10.226;2022-12-29T12:06:33;12.60;99.90
4725;DHT22;2376;53.544;10.226;2022-12-29T12:09:06;12.60;99.90
4725;DHT22;2376;53.544;10.226;2022-12-29T12:11:37;12.50;99.90
4725;DHT22;2376;53.544;10.226;2022-12-29T12:14:14;12.50;99.90
4725;DHT22;2376;53.544;10.226;2022-12-29T12:16:45;12.40;99.90
4725;DHT22;2376;53.544;10.226;2022-12-29T12:19:15;12.40;99.90
4725;DHT22;2376;53.544;10.226;2022-12-29T12:21:47;12.30;99.90
4725;DHT22;2376;53.544;10.226;2022-12-29T12:24:35;12.30;99.90
4725;DHT22;2376;53.544;10.226;2022-12-29T12:27:11;12.30;99.90
4725;DHT22;2376;53.544;10.226;2022-12-29T12:29:43;12.40;99.90
4725;DHT22;2376;53.544;10.226;2022-12-29T12:32:15;12.40;99.90
4725;DHT22;2376;53.544;10.226;2022-12-29T12:34:45;12.40;99.90
4725;DHT22;2376;53.544;10.226;2022-12-29T12:37:26;12.30;99.90
4725;DHT22;2376;53.544;10.226;2022-12-29T12:40:19;12.40;99.90
4725;DHT22;2376;53.544;10.226;2022-12-29T12:42:55;12.30;99.90
4725;DHT22;2376;53.544;10.226;2022-12-29T12:45:33;12.40;99.90
4725;DHT22;2376;53.544;10.226;2022-12-29T12:48:26;12.40;99.90
4725;DHT22;2376;53.544;10.226;2022-12-29T12:51:01;12.50;99.90
4725;DHT22;2376;53.544;10.226;2022-12-29T12:53:43;12.50;99.90
4725;DHT22;2376;53.544;10.226;2022-12-29T12:56:27;12.50;99.90
4725;DHT22;2376;53.544;10.226;2022-12-29T12:59:05;12.40;99.90
4725;DHT22;2376;53.544;10.226;2022-12-29T13:01:42;12.30;99.90
4725;DHT22;2376;53.544;10.226;2022-12-29T13:04:33;12.30;99.90
4725;DHT22;2376;53.544;10.226;2022-12-29T13:07:13;12.40;99.90
4725;DHT22;2376;53.544;10.226;2022-12-29T13:09:52;12.40;99.90
4725;DHT22;2376;53.544;10.226;2022-12-29T13:12:32;12.40;99.90
4725;DHT22;2376;53.544;10.226;2022-12-29T13:15:15;12.40;99.90
4725;DHT22;2376;53.544;10.226;2022-12-29T13:17:50;12.40;99.90
4725;DHT22;2376;53.544;10.226;2022-12-29T13:20:27;12.40;99.90
4725;DHT22;2376;53.544;10.226;2022-12-29T13:23:01;12.50;99.90
4725;DHT22;2376;53.544;10.226;2022-12-29T13:25:35;12.40;99.90
4725;DHT22;2376;53.544;10.226;2022-12-29T13:28:09;12.30;99.90
4725;DHT22;2376;53.544;10.226;2022-12-29T13:30:45;12.20;99.90
4725;DHT22;2376;53.544;10.226;2022-12-29T13:33:17;12.30;99.90
4725;DHT22;2376;53.544;10.226;2022-12-29T13:35:56;12.40;99.90
4725;DHT22;2376;53.544;10.226;2022-12-29T13:38:28;12.40;99.90
4725;DHT22;2376;53.544;10.226;2022-12-29T13:40:59;12.40;99.90
4725;DHT22;2376;53.544;10.226;2022-12-29T13:43:31;12.30;99.90
4725;DHT22;2376;53.544;10.226;2022-12-29T13:46:02;12.30;99.90
4725;DHT22;2376;53.544;10.226;2022-12-29T13:48:40;12.30;99.90
4725;DHT22;2376;53.544;10.226;2022-12-29T13:51:08;12.30;99.90
4725;DHT22;2376;53.544;10.226;2022-12-29T13:53:42;12.30;99.90
4725;DHT22;2376;53.544;10.226;2022-12-29T13:56:14;12.30;99.90
4725;DHT22;2376;53.544;10.226;2022-12-29T13:58:50;12.30;99.90
4725;DHT22;2376;53.544;10.226;2022-12-29T14:01:23;12.30;99.90
4725;DHT22;2376;53.544;10.226;2022-12-29T14:03:56;12.30;99.90
4725;DHT22;2376;53.544;10.226;2022-12-29T14:06:24;12.20;99.90
4725;DHT22;2376;53.544;10.226;2022-12-29T14:08:53;12.20;99.90
4725;DHT22;2376;53.544;10.226;2022-12-29T14:11:23;12.30;99.90
4725;DHT22;2376;53.544;10.226;2022-12-29T14:13:54;12.30;99.90
4725;DHT22;2376;53.544;10.226;2022-12-29T14:16:26;12.10;99.90
4725;DHT22;2376;53.544;10.226;2022-12-29T14:18:55;12.20;99.90
4725;DHT22;2376;53.544;10.226;2022-12-29T14:21:25;12.20;99.90
4725;DHT22;2376;53.544;10.226;2022-12-29T14:26:43;12.40;99.90
4725;DHT22;2376;53.544;10.226;2022-12-29T14:29:43;12.40;99.90
4725;DHT22;2376;53.544;10.226;2022-12-29T14:32:36;12.30;99.90
4725;DHT22;2376;53.544;10.226;2022-12-29T14:38:13;12.10;99.90
4725;DHT22;2376;53.544;10.226;2022-12-29T14:40:41;11.60;99.90
4725;DHT22;2376;53.544;10.226;2022-12-29T14:43:12;11.30;99.90
4725;DHT22;2376;53.544;10.226;2022-12-29T14:45:42;11.10;99.90
4725;DHT22;2376;53.544;10.226;2022-12-29T14:48:33;11.10;99.90
4725;DHT22;2376;53.544;10.226;2022-12-29T14:51:01;11.20;99.90
4725;DHT22;2376;53.544;10.226;2022-12-29T14:53:43;11.20;99.90
4725;DHT22;2376;53.544;10.226;2022-12-29T14:56:11;11.20;99.90
4725;DHT22;2376;53.544;10.226;2022-12-29T14:58:44;11.20;99.90
4725;DHT22;2376;53.544;10.226;2022-12-29T15:01:20;11.30;99.90
4725;DHT22;2376;53.544;10.226;2022-12-29T15:03:49;11.40;99.90
4725;DHT22;2376;53.544;10.226;2022-12-29T15:06:17;11.50;99.90
4725;DHT22;2376;53.544;10.226;2022-12-29T15:08:50;11.40;99.90
4725;DHT22;2376;53.544;10.226;2022-12-29T15:11:20;11.40;99.90
4725;DHT22;2376;53.544;10.226;2022-12-29T15:13:48;11.50;99.90
4725;DHT22;2376;53.544;10.226;2022-12-29T15:16:24;11.50;99.90
4725;DHT22;2376;53.544;10.226;2022-12-29T15:18:51;11.50;99.90
4725;DHT22;2376;53.544;10.226;2022-12-29T15:21:23;11.40;99.90
4725;DHT22;2376;53.544;10.226;2022-12-29T15:23:50;11.50;99.90
4725;DHT22;2376;53.544;10.226;2022-12-29T15:26:17;11.40;99.90
4725;DHT22;2376;53.544;10.226;2022-12-29T15:28:48;11.50;99.90
4725;DHT22;2376;53.544;10.226;2022-12-29T15:31:17;11.50;99.90
4725;DHT22;2376;53.544;10.226;2022-12-29T15:33:48;11.40;99.90
4725;DHT22;2376;53.544;10.226;2022-12-29T15:36:19;11.40;99.90
4725;DHT22;2376;53.544;10.226;2022-12-29T15:38:47;11.40;99.90
4725;DHT22;2376;53.544;10.226;2022-12-29T15:41:26;11.40;99.90
4725;DHT22;2376;53.544;10.226;2022-12-29T15:44:06;11.40;99.90
4725;DHT22;2376;53.544;10.226;2022-12-29T15:46:36;11.40;99.90
4725;DHT22;2376;53.544;10.226;2022-12-29T15:49:07;11.40;99.90
4725;DHT22;2376;53.544;10.226;2022-12-29T15:51:36;11.40;99.90
4725;DHT22;2376;53.544;10.226;2022-12-29T15:54:04;11.40;99.90
4725;DHT22;2376;53.544;10.226;2022-12-29T15:56:32;11.30;99.90
4725;DHT22;2376;53.544;10.226;2022-12-29T15:59:00;11.20;99.90
4725;DHT22;2376;53.544;10.226;2022-12-29T16:01:29;11.20;99.90
4725;DHT22;2376;53.544;10.226;2022-12-29T16:03:57;11.20;99.90
4725;DHT22;2376;53.544;10.226;2022-12-29T16:06:31;11.20;99.90
4725;DHT22;2376;53.544;10.226;2022-12-29T16:09:00;11.10;99.90
4725;DHT22;2376;53.544;10.226;2022-12-29T16:11:32;11.10;99.90
4725;DHT22;2376;53.544;10.226;2022-12-29T16:14:00;11.20;99.90
4725;DHT22;2376;53.544;10.226;2022-12-29T16:16:30;11.30;99.90
4725;DHT22;2376;53.544;10.226;2022-12-29T16:18:58;11.20;99.90
4725;DHT22;2376;53.544;10.226;2022-12-29T16:21:27;11.30;99.90
4725;DHT22;2376;53.544;10.226;2022-12-29T16:24:00;11.30;99.90